Time;durP1;ratioP1;P1;durP2;ratioP2;P2;SDS_P1;SDS_P2;PMS_P1;PMS_P2;Temp;Humidity;BMP_temperature;BMP_pressure;BME280_temperature;BME280_humidity;BME280_pressure;Samples;Min_cycle;Max_cycle;Signal;HPM_P1;HPM_P2
2022/06/23 00:02:45;;;;;;;1.42;0.60;;;;;;;23.18;35.76;100560.00;5195454;28;20038;-82
2022/06/23 00:05:25;;;;;;;0.32;0.32;;;;;;;23.14;35.90;100555.03;5175556;28;20042;-82
2022/06/23 00:08:00;;;;;;;0.30;0.30;;;;;;;23.10;35.86;100547.25;5202864;28;20420;-82
2022/06/23 00:10:45;;;;;;;0.38;0.38;;;;;;;23.09;36.20;100555.41;5178401;28;20080;-83
2022/06/23 00:13:36;;;;;;;1.00;0.85;;;;;;;23.04;35.86;100544.22;5182655;28;20025;-83
2022/06/23 00:16:22;;;;;;;0.68;0.68;;;;;;;23.05;35.94;100551.25;5153661;28;20048;-83
2022/06/23 00:18:53;;;;;;;0.25;0.25;;;;;;;23.00;36.41;100550.81;5181320;28;20116;-82
2022/06/23 00:21:28;;;;;;;11.35;1.15;;;;;;;22.97;36.01;100553.72;5176375;28;20119;-83
2022/06/23 00:24:13;;;;;;;0.30;0.30;;;;;;;22.92;36.27;100536.25;5164954;28;20040;-83
2022/06/23 00:26:44;;;;;;;0.20;0.20;;;;;;;22.88;36.71;100537.44;5187612;28;20511;-83
2022/06/23 00:29:21;;;;;;;0.30;0.30;;;;;;;22.86;36.82;100531.38;5154361;28;20116;-83
2022/06/23 00:32:06;;;;;;;0.80;0.45;;;;;;;22.83;36.54;100525.44;5177241;28;20164;-83
2022/06/23 00:34:52;;;;;;;0.40;0.40;;;;;;;22.79;36.85;100543.56;5197863;28;20029;-84
2022/06/23 00:37:24;;;;;;;0.35;0.35;;;;;;;22.77;36.54;100532.13;5189012;28;20034;-83
2022/06/23 00:39:57;;;;;;;0.73;0.73;;;;;;;22.73;36.62;100528.84;5176066;28;20130;-83
2022/06/23 00:42:31;;;;;;;1.00;0.70;;;;;;;22.70;37.11;100533.59;5199106;28;20048;-82
2022/06/23 00:45:04;;;;;;;3.20;0.43;;;;;;;22.68;36.88;100536.41;5179670;28;20051;-83
2022/06/23 00:47:38;;;;;;;1.27;0.45;;;;;;;22.66;37.15;100532.16;5181469;28;20037;-83
2022/06/23 00:50:29;;;;;;;1.23;1.08;;;;;;;22.62;36.84;100531.56;5159730;28;20049;-83
2022/06/23 00:53:12;;;;;;;0.30;0.30;;;;;;;22.60;37.09;100523.66;5178869;28;20036;-83
2022/06/23 00:56:01;;;;;;;2.60;0.70;;;;;;;22.54;37.39;100524.16;5179391;28;20080;-83
2022/06/23 00:58:55;;;;;;;0.20;0.20;;;;;;;22.52;37.35;100525.25;5166684;28;20033;-84
2022/06/23 01:02:10;;;;;;;0.30;0.30;;;;;;;22.49;37.28;100523.69;5193854;28;20044;-83
2022/06/23 01:05:15;;;;;;;0.50;0.50;;;;;;;22.44;37.40;100523.19;5184410;28;20034;-83
2022/06/23 01:08:01;;;;;;;0.32;0.32;;;;;;;22.40;37.61;100527.09;5169682;28;20048;-84
2022/06/23 01:10:47;;;;;;;0.30;0.30;;;;;;;22.39;37.59;100525.38;5186540;28;20072;-84
2022/06/23 01:13:29;;;;;;;0.20;0.20;;;;;;;22.36;37.58;100525.59;5210234;28;20033;-83
2022/06/23 01:16:20;;;;;;;0.30;0.30;;;;;;;22.31;37.80;100524.16;5170030;28;20040;-83
2022/06/23 01:18:58;;;;;;;1.13;0.85;;;;;;;22.28;37.68;100537.75;5193167;28;20060;-83
2022/06/23 01:21:46;;;;;;;0.45;0.45;;;;;;;22.24;37.99;100530.97;5200271;28;20180;-83
2022/06/23 01:24:36;;;;;;;0.60;0.60;;;;;;;22.18;37.84;100536.81;5177854;28;20041;-83
2022/06/23 01:27:38;;;;;;;3.30;0.63;;;;;;;22.19;38.08;100525.13;5172568;28;20032;-83
2022/06/23 01:30:12;;;;;;;1.10;0.40;;;;;;;22.14;37.80;100538.00;5154674;28;20499;-83
2022/06/23 01:32:51;;;;;;;1.17;1.10;;;;;;;22.10;37.70;100539.25;5184688;28;20625;-83
2022/06/23 01:35:34;;;;;;;0.68;0.68;;;;;;;22.07;38.27;100536.78;5160259;28;20045;-83
2022/06/23 01:38:17;;;;;;;0.45;0.45;;;;;;;22.05;38.01;100533.38;5153360;28;20028;-82
2022/06/23 01:40:56;;;;;;;0.17;0.17;;;;;;;22.01;38.10;100533.66;5157855;28;20033;-83
2022/06/23 01:43:35;;;;;;;1.35;1.25;;;;;;;21.99;38.06;100535.59;5168266;28;20064;-83
2022/06/23 01:46:18;;;;;;;0.30;0.30;;;;;;;21.97;38.31;100544.69;5187844;28;20053;-83
2022/06/23 01:49:05;;;;;;;0.28;0.28;;;;;;;21.93;38.13;100540.53;5183671;28;20033;-83
2022/06/23 01:51:38;;;;;;;0.40;0.40;;;;;;;21.90;38.46;100540.81;5173657;28;20147;-83
2022/06/23 01:54:25;;;;;;;0.32;0.32;;;;;;;21.86;38.47;100545.50;5156202;28;20317;-83
2022/06/23 01:57:24;;;;;;;0.40;0.40;;;;;;;21.84;38.43;100542.13;5189435;28;20049;-83
2022/06/23 02:00:13;;;;;;;0.77;0.50;;;;;;;21.81;38.63;100545.88;5171691;28;20075;-83
2022/06/23 02:03:00;;;;;;;0.85;0.85;;;;;;;21.77;38.76;100541.75;5191907;28;20046;-83
2022/06/23 02:05:46;;;;;;;0.20;0.20;;;;;;;21.75;38.74;100543.66;5201443;28;20068;-83
2022/06/23 02:08:37;;;;;;;0.55;0.55;;;;;;;21.73;39.04;100531.41;5174329;28;20410;-83
2022/06/23 02:11:22;;;;;;;0.20;0.20;;;;;;;21.71;38.84;100539.56;5189111;28;20037;-83
2022/06/23 02:14:09;;;;;;;0.32;0.32;;;;;;;21.66;39.14;100539.91;5199713;28;20048;-83
2022/06/23 02:16:43;;;;;;;0.20;0.20;;;;;;;21.63;39.16;100536.63;5166787;28;20050;-84
2022/06/23 02:19:41;;;;;;;0.82;0.82;;;;;;;21.57;39.02;100539.75;5201852;28;20037;-83
2022/06/23 02:22:47;;;;;;;0.85;0.85;;;;;;;21.56;39.21;100541.53;5158719;28;20071;-83
2022/06/23 02:25:32;;;;;;;0.57;0.57;;;;;;;21.52;39.33;100546.25;5126183;28;20042;-84
2022/06/23 02:28:10;;;;;;;0.32;0.32;;;;;;;21.52;39.56;100538.25;5175281;28;20059;-83
2022/06/23 02:30:55;;;;;;;0.57;0.52;;;;;;;21.49;39.79;100538.47;5171635;28;20616;-84
2022/06/23 02:33:39;;;;;;;0.20;0.20;;;;;;;21.48;39.72;100542.13;5172323;28;20088;-84
2022/06/23 02:36:28;;;;;;;0.40;0.40;;;;;;;21.48;39.90;100539.47;5168905;28;20045;-83
2022/06/23 02:39:05;;;;;;;1.80;1.23;;;;;;;21.46;39.78;100543.19;5188518;28;20071;-84
2022/06/23 02:41:40;;;;;;;0.45;0.45;;;;;;;21.45;39.76;100546.84;5172236;28;20032;-84
2022/06/23 02:44:23;;;;;;;0.70;0.70;;;;;;;21.45;40.24;100541.50;5211592;28;20029;-84
2022/06/23 02:47:25;;;;;;;0.47;0.47;;;;;;;21.43;40.06;100549.63;5152858;28;20056;-84
2022/06/23 02:50:05;;;;;;;0.30;0.30;;;;;;;21.44;40.11;100547.81;5168224;28;20060;-84
2022/06/23 02:53:30;;;;;;;0.70;0.70;;;;;;;21.44;40.55;100550.50;5185016;28;20029;-84
2022/06/23 02:56:28;;;;;;;0.52;0.52;;;;;;;21.44;40.53;100547.81;5101408;28;20047;-82
2022/06/23 02:59:32;;;;;;;0.28;0.28;;;;;;;21.42;40.28;100547.91;5173400;28;20406;-83
2022/06/23 03:02:15;;;;;;;0.60;0.60;;;;;;;21.42;40.55;100549.75;5132426;28;20088;-83
2022/06/23 03:04:57;;;;;;;0.40;0.40;;;;;;;21.40;40.75;100549.88;5179132;28;20025;-83
2022/06/23 03:07:50;;;;;;;0.77;0.77;;;;;;;21.44;41.26;100547.81;5190180;28;20048;-82
2022/06/23 03:10:38;;;;;;;0.40;0.40;;;;;;;21.42;40.73;100547.09;5202969;28;20037;-83
2022/06/23 03:13:15;;;;;;;0.30;0.30;;;;;;;21.43;40.83;100546.13;5192780;28;20109;-83
2022/06/23 03:15:52;;;;;;;0.30;0.30;;;;;;;21.43;40.90;100546.97;5207777;28;20452;-84
2022/06/23 03:18:40;;;;;;;0.95;0.50;;;;;;;21.43;41.26;100548.78;5192269;28;20049;-83
2022/06/23 03:21:22;;;;;;;1.75;0.65;;;;;;;21.42;40.97;100552.41;5204574;28;20045;-84
2022/06/23 03:24:00;;;;;;;0.30;0.30;;;;;;;21.42;41.08;100553.25;5193792;28;20101;-83
2022/06/23 03:26:40;;;;;;;0.45;0.45;;;;;;;21.40;41.03;100560.56;5195718;28;20029;-83
2022/06/23 03:29:11;;;;;;;0.55;0.55;;;;;;;21.41;41.14;100562.22;5172862;28;20037;-82
2022/06/23 03:32:08;;;;;;;0.30;0.30;;;;;;;21.45;42.22;100557.50;5171086;28;20041;-83
2022/06/23 03:34:43;;;;;;;0.25;0.25;;;;;;;21.38;41.69;100555.31;5174031;28;20116;-83
2022/06/23 03:37:22;;;;;;;0.40;0.40;;;;;;;21.39;41.52;100565.03;5174114;28;20591;-83
2022/06/23 03:43:23;;;;;;;0.30;0.30;;;;;;;21.38;41.64;100552.63;5193156;28;20124;-82
2022/06/23 03:46:03;;;;;;;0.45;0.32;;;;;;;21.42;41.75;100547.09;5166092;28;20048;-83
2022/06/23 03:48:44;;;;;;;3.42;1.13;;;;;;;21.42;41.82;100547.09;5175123;28;20735;-82
2022/06/23 03:51:24;;;;;;;0.40;0.40;;;;;;;21.41;41.59;100548.03;5168731;28;20044;-83
2022/06/23 03:54:09;;;;;;;0.30;0.30;;;;;;;21.41;41.91;100550.72;5185287;28;20018;-82
2022/06/23 03:56:53;;;;;;;0.40;0.40;;;;;;;21.42;41.76;100547.09;5188224;28;20713;-83
2022/06/23 04:00:05;;;;;;;0.50;0.50;;;;;;;21.41;41.74;100545.38;5176480;28;20613;-83
2022/06/23 04:02:43;;;;;;;0.30;0.30;;;;;;;21.41;41.96;100551.56;5173360;28;20065;-81
2022/06/23 04:05:22;;;;;;;1.08;0.68;;;;;;;21.41;41.96;100545.38;5171636;28;20705;-82
2022/06/23 04:08:03;;;;;;;0.40;0.40;;;;;;;21.42;41.69;100547.09;5233451;28;20045;-83
2022/06/23 04:10:42;;;;;;;0.38;0.38;;;;;;;21.40;41.96;100547.22;5178695;28;20040;-83
2022/06/23 04:13:22;;;;;;;0.20;0.20;;;;;;;21.43;42.01;100546.97;5208615;28;20030;-81
2022/06/23 04:16:00;;;;;;;0.52;0.52;;;;;;;21.40;41.72;100549.88;5193938;28;20048;-82
2022/06/23 04:18:32;;;;;;;0.30;0.30;;;;;;;21.41;41.99;100548.03;5172171;28;20033;-79
2022/06/23 04:21:19;;;;;;;0.22;0.22;;;;;;;21.39;41.97;100541.00;5179710;28;20637;-79
2022/06/23 04:24:05;;;;;;;0.40;0.40;;;;;;;21.42;42.10;100539.91;5169206;28;20102;-78
2022/06/23 04:26:43;;;;;;;0.40;0.40;;;;;;;21.43;42.12;100548.78;5169113;28;20741;-80
2022/06/23 04:29:24;;;;;;;0.20;0.20;;;;;;;21.43;41.99;100549.63;5164280;28;20042;-82
2022/06/23 04:32:13;;;;;;;0.40;0.40;;;;;;;21.44;41.93;100551.34;5169191;28;20197;-80
2022/06/23 04:34:51;;;;;;;0.40;0.40;;;;;;;21.46;42.13;100548.53;5184180;28;20118;-82
2022/06/23 04:37:32;;;;;;;9.23;0.50;;;;;;;21.47;41.97;100550.25;5197769;28;20545;-82
2022/06/23 04:40:21;;;;;;;0.55;0.55;;;;;;;21.48;42.02;100546.59;5206336;28;20132;-83
2022/06/23 04:43:18;;;;;;;1.75;1.15;;;;;;;21.49;42.23;100554.50;5190920;28;20041;-81
2022/06/23 04:45:49;;;;;;;0.77;0.77;;;;;;;21.52;42.20;100559.59;5169637;28;20034;-82
2022/06/23 04:48:39;;;;;;;0.85;0.85;;;;;;;21.54;42.66;100562.16;5158928;28;20054;-80
2022/06/23 04:51:18;;;;;;;0.52;0.52;;;;;;;21.54;42.71;100568.34;5189068;28;20045;-79
2022/06/23 04:54:12;;;;;;;1.92;0.47;;;;;;;21.54;42.54;100567.50;5201835;28;20033;-79
2022/06/23 04:56:51;;;;;;;0.30;0.30;;;;;;;21.56;42.65;100565.56;5158383;28;20057;-80
2022/06/23 04:59:38;;;;;;;0.50;0.50;;;;;;;21.60;42.60;100567.06;5199768;28;20040;-80
2022/06/23 05:02:20;;;;;;;0.30;0.30;;;;;;;21.60;42.59;100564.41;5181670;28;20034;-80
2022/06/23 05:05:14;;;;;;;0.20;0.20;;;;;;;21.61;43.17;100568.75;5190816;28;20058;-80
2022/06/23 05:08:00;;;;;;;0.30;0.30;;;;;;;21.59;43.77;100559.16;5157433;28;20036;-80
2022/06/23 05:10:43;;;;;;;0.73;0.65;;;;;;;21.58;43.53;100562.81;5153779;28;20046;-80
2022/06/23 05:13:21;;;;;;;1.98;1.35;;;;;;;21.63;42.55;100566.81;5169004;28;20036;-79
2022/06/23 05:16:22;;;;;;;2.38;0.90;;;;;;;21.66;43.10;100560.38;5183755;28;20044;-79
2022/06/23 05:18:55;;;;;;;0.95;0.40;;;;;;;21.67;43.08;100562.09;5174304;28;20049;-79
2022/06/23 05:21:49;;;;;;;0.20;0.20;;;;;;;21.69;43.53;100566.34;5180108;28;20056;-79
2022/06/23 05:24:34;;;;;;;0.20;0.20;;;;;;;21.74;43.25;100567.84;5166438;28;20390;-79
2022/06/23 05:27:16;;;;;;;0.90;0.90;;;;;;;21.77;43.40;100572.94;5181157;28;20488;-79
2022/06/23 05:29:59;;;;;;;0.73;0.50;;;;;;;21.77;43.48;100567.59;5206774;28;20022;-79
2022/06/23 05:32:40;;;;;;;0.30;0.30;;;;;;;21.80;43.34;100567.34;5202417;28;20035;-80
2022/06/23 05:35:29;;;;;;;0.45;0.45;;;;;;;21.84;43.43;100566.16;5191611;28;20037;-79
2022/06/23 05:38:03;;;;;;;1.60;1.27;;;;;;;21.88;43.88;100564.94;5208122;28;20069;-80
2022/06/23 05:40:39;;;;;;;0.98;0.82;;;;;;;21.92;44.08;100569.09;5208484;28;20047;-79
2022/06/23 05:43:11;;;;;;;0.90;0.90;;;;;;;21.93;44.55;100568.13;5188298;28;20489;-80
2022/06/23 05:45:53;;;;;;;0.20;0.20;;;;;;;21.99;44.38;100578.31;5194125;28;20045;-80
2022/06/23 05:48:31;;;;;;;0.30;0.30;;;;;;;21.99;44.46;100581.00;5201298;28;20181;-78
2022/06/23 05:51:18;;;;;;;0.28;0.28;;;;;;;22.02;44.80;100583.41;5184947;28;20054;-78
2022/06/23 05:53:52;;;;;;;0.50;0.50;;;;;;;22.04;44.38;100574.44;5203958;28;20021;-79
2022/06/23 05:56:38;;;;;;;4.40;2.10;;;;;;;22.06;44.34;100568.03;5180746;28;20740;-79
2022/06/23 05:59:14;;;;;;;0.80;0.80;;;;;;;22.10;44.90;100568.63;5160274;28;20037;-79
2022/06/23 06:02:15;;;;;;;0.65;0.65;;;;;;;22.14;44.64;100567.41;5199653;28;20228;-79
2022/06/23 06:04:52;;;;;;;0.30;0.30;;;;;;;22.15;45.79;100572.63;5159195;28;20053;-79
2022/06/23 06:07:38;;;;;;;0.38;0.38;;;;;;;22.19;44.79;100573.22;5175934;28;20033;-80
2022/06/23 06:10:19;;;;;;;0.70;0.70;;;;;;;22.21;45.62;100565.94;5190800;28;20037;-79
2022/06/23 06:12:54;;;;;;;0.70;0.70;;;;;;;22.20;47.50;100566.91;5173231;28;20131;-80
2022/06/23 06:15:29;;;;;;;1.02;0.93;;;;;;;22.28;46.16;100571.66;5195279;28;20067;-79
2022/06/23 06:18:23;;;;;;;1.15;0.47;;;;;;;22.32;45.56;100573.97;5189229;28;20033;-79
2022/06/23 06:20:57;;;;;;;2.30;0.85;;;;;;;22.36;47.12;100576.38;5192013;28;20068;-79
2022/06/23 06:23:36;;;;;;;0.40;0.40;;;;;;;22.41;49.84;100574.25;5184836;28;20039;-79
2022/06/23 06:26:14;;;;;;;1.50;1.40;;;;;;;22.43;48.11;100585.69;5206411;28;20045;-79
2022/06/23 06:28:45;;;;;;;1.17;1.05;;;;;;;22.46;47.57;100577.38;5183899;28;20060;-79
2022/06/23 06:31:24;;;;;;;0.88;0.88;;;;;;;22.54;48.02;100582.97;5210826;28;20091;-79
2022/06/23 06:34:03;;;;;;;13.15;1.38;;;;;;;22.53;47.22;100578.59;5169121;28;20056;-79
2022/06/23 06:36:48;;;;;;;0.40;0.40;;;;;;;22.56;47.19;100577.53;5201154;28;20063;-79
2022/06/23 06:39:20;;;;;;;0.77;0.77;;;;;;;22.58;47.68;100579.09;5158580;28;20021;-79
2022/06/23 06:41:59;;;;;;;2.75;0.95;;;;;;;22.67;47.40;100574.81;5173590;28;20510;-80
2022/06/23 06:44:31;;;;;;;0.88;0.85;;;;;;;22.73;50.00;100570.81;5188503;28;20033;-79
2022/06/23 06:47:02;;;;;;;0.50;0.50;;;;;;;22.77;50.41;100574.91;5174079;28;20067;-80
2022/06/23 06:49:33;;;;;;;1.55;0.50;;;;;;;22.82;48.84;100574.53;5187439;28;20350;-80
2022/06/23 06:52:04;;;;;;;0.40;0.40;;;;;;;22.79;50.03;100571.16;5169320;28;20090;-80
2022/06/23 06:55:04;;;;;;;0.30;0.30;;;;;;;22.82;49.11;100572.75;5187638;28;20324;-80
2022/06/23 06:57:43;;;;;;;1.38;1.08;;;;;;;22.86;49.17;100574.16;5170095;28;20095;-80
2022/06/23 07:00:25;;;;;;;2.40;1.27;;;;;;;22.88;49.67;100574.91;5192655;28;20386;-80
2022/06/23 07:03:02;;;;;;;0.40;0.40;;;;;;;22.93;48.81;100567.34;5178495;28;20029;-80
2022/06/23 07:05:39;;;;;;;0.43;0.43;;;;;;;22.99;51.15;100565.16;5161655;28;20107;-80
2022/06/23 07:08:43;;;;;;;0.85;0.63;;;;;;;23.03;50.53;100571.94;5215241;28;20104;-79
2022/06/23 07:11:33;;;;;;;0.45;0.45;;;;;;;23.01;51.74;100564.03;5184925;28;20045;-79
2022/06/23 07:14:12;;;;;;;1.08;0.98;;;;;;;23.09;52.86;100566.94;5190723;28;20121;-79
2022/06/23 07:17:05;;;;;;;0.73;0.47;;;;;;;23.13;53.15;100562.19;5201519;28;20052;-80
2022/06/23 07:19:47;;;;;;;5.18;1.05;;;;;;;23.19;52.33;100571.56;5200523;28;20033;-79
2022/06/23 07:22:33;;;;;;;0.50;0.50;;;;;;;23.31;52.30;100567.84;5185606;28;20274;-79
2022/06/23 07:25:04;;;;;;;0.50;0.50;;;;;;;23.26;51.25;100565.56;5176586;28;20067;-79
2022/06/23 07:27:45;;;;;;;0.40;0.40;;;;;;;23.36;51.53;100557.63;5181491;28;20052;-79
2022/06/23 07:30:22;;;;;;;0.32;0.32;;;;;;;23.41;50.52;100550.03;5193630;28;20045;-79
2022/06/23 07:32:59;;;;;;;0.90;0.90;;;;;;;23.44;52.24;100548.09;5154500;28;20056;-79
2022/06/23 07:36:07;;;;;;;0.30;0.30;;;;;;;23.59;53.75;100554.81;5201229;28;20045;-80
2022/06/23 07:39:06;;;;;;;1.40;1.02;;;;;;;23.51;53.54;100550.09;5173301;28;20038;-80
2022/06/23 07:41:42;;;;;;;0.70;0.70;;;;;;;23.55;52.54;100551.56;5179302;28;20124;-80
2022/06/23 07:44:40;;;;;;;0.50;0.50;;;;;;;23.65;53.33;100550.78;5186288;28;20056;-79
2022/06/23 07:47:16;;;;;;;0.85;0.75;;;;;;;23.66;53.37;100547.13;5192647;28;20101;-79
2022/06/23 07:49:55;;;;;;;1.02;0.98;;;;;;;23.74;52.35;100550.00;5184118;28;20045;-79
2022/06/23 07:52:57;;;;;;;0.57;0.57;;;;;;;23.76;53.14;100539.97;5206481;28;20224;-79
2022/06/23 07:55:38;;;;;;;0.40;0.40;;;;;;;23.83;52.63;100540.31;5165624;28;20046;-79
2022/06/23 07:58:09;;;;;;;1.33;0.85;;;;;;;23.87;52.97;100539.09;5154687;28;20036;-79
2022/06/23 08:00:45;;;;;;;1.70;0.70;;;;;;;23.92;52.86;100546.72;5163435;28;20638;-79
2022/06/23 08:03:27;;;;;;;0.38;0.38;;;;;;;23.96;52.02;100554.41;5157365;28;20052;-80
2022/06/23 08:06:06;;;;;;;0.67;0.60;;;;;;;24.02;52.72;100545.81;5171681;28;20117;-79
2022/06/23 08:08:43;;;;;;;1.20;0.75;;;;;;;23.99;52.45;100546.06;5205419;28;20440;-80
2022/06/23 08:14:20;;;;;;;1.25;1.00;;;;;;;24.17;53.57;100535.56;5203978;28;20552;-79
2022/06/23 08:16:54;;;;;;;0.90;0.90;;;;;;;24.16;53.35;100538.38;5174929;28;20053;-79
2022/06/23 08:19:37;;;;;;;0.63;0.63;;;;;;;24.23;54.22;100550.25;5189622;28;20028;-80
2022/06/23 08:22:22;;;;;;;0.63;0.63;;;;;;;24.25;52.97;100547.47;5175489;28;20288;-80
2022/06/23 08:24:58;;;;;;;0.73;0.73;;;;;;;24.32;55.03;100548.63;5159274;28;20052;-80
2022/06/23 08:27:32;;;;;;;0.50;0.47;;;;;;;24.40;53.74;100548.78;5172496;28;20342;-79
2022/06/23 08:30:16;;;;;;;0.52;0.52;;;;;;;24.42;53.31;100544.13;5179578;28;20040;-79
2022/06/23 08:32:50;;;;;;;5.28;2.30;;;;;;;24.45;54.56;100543.84;5188904;28;20112;-79
2022/06/23 08:35:37;;;;;;;1.80;1.65;;;;;;;24.58;54.11;100546.28;5178754;28;20049;-80
2022/06/23 08:38:16;;;;;;;2.17;1.20;;;;;;;24.51;53.92;100535.25;5173453;28;20537;-79
2022/06/23 08:41:09;;;;;;;0.60;0.60;;;;;;;24.58;52.72;100543.63;5171367;28;20045;-79
2022/06/23 08:43:47;;;;;;;1.50;0.88;;;;;;;24.69;52.64;100548.03;5161263;28;20049;-79
2022/06/23 08:46:38;;;;;;;0.60;0.60;;;;;;;24.69;53.31;100541.84;5151291;28;20048;-79
2022/06/23 08:49:17;;;;;;;0.85;0.85;;;;;;;24.75;52.40;100539.44;5178165;28;20030;-80
2022/06/23 08:52:15;;;;;;;8.80;1.02;;;;;;;24.78;52.53;100538.34;5180392;28;20037;-80
2022/06/23 08:55:31;;;;;;;1.45;1.20;;;;;;;24.82;52.04;100537.06;5186012;28;20029;-80
2022/06/23 08:58:10;;;;;;;2.30;1.30;;;;;;;24.88;51.62;100543.72;5169658;28;20041;-81
2022/06/23 09:01:13;;;;;;;0.40;0.40;;;;;;;24.87;50.82;100533.97;5173572;28;20438;-80
2022/06/23 09:04:14;;;;;;;0.55;0.55;;;;;;;24.93;50.46;100525.34;5166583;28;20037;-80
2022/06/23 09:06:55;;;;;;;0.50;0.50;;;;;;;24.98;52.01;100534.66;5155256;28;20225;-80
2022/06/23 09:09:36;;;;;;;0.73;0.73;;;;;;;25.01;51.80;100533.53;5180645;28;20816;-80
2022/06/23 09:12:18;;;;;;;0.30;0.30;;;;;;;25.09;51.38;100528.31;5209335;28;20582;-81
2022/06/23 09:15:14;;;;;;;0.88;0.88;;;;;;;25.11;50.12;100522.81;5171858;28;20053;-80
2022/06/23 09:17:56;;;;;;;0.80;0.80;;;;;;;25.14;49.74;100523.38;5204376;28;20029;-80
2022/06/23 09:20:50;;;;;;;0.35;0.35;;;;;;;25.20;50.64;100521.97;5178911;28;20049;-81
2022/06/23 09:23:21;;;;;;;1.58;0.60;;;;;;;25.27;49.95;100519.56;5169988;28;20049;-81
2022/06/23 09:26:20;;;;;;;0.65;0.65;;;;;;;25.32;49.53;100516.44;5187542;28;20429;-80
2022/06/23 09:28:58;;;;;;;2.97;1.40;;;;;;;25.33;48.60;100516.28;5205842;28;20109;-81
2022/06/23 09:31:36;;;;;;;1.35;1.02;;;;;;;25.37;47.97;100516.88;5183304;28;20100;-81
2022/06/23 09:34:31;;;;;;;0.30;0.30;;;;;;;25.35;47.95;100511.63;5163227;28;20036;-80
2022/06/23 09:37:08;;;;;;;0.40;0.40;;;;;;;25.42;47.55;100509.25;5194992;28;20036;-81
2022/06/23 09:39:54;;;;;;;9.50;1.30;;;;;;;25.48;48.25;100510.53;5179541;28;20037;-80
2022/06/23 09:42:56;;;;;;;1.05;1.00;;;;;;;25.58;47.95;100503.28;5197196;28;20036;-79
2022/06/23 09:45:32;;;;;;;0.40;0.40;;;;;;;25.56;47.90;100499.91;5154697;28;20088;-79
2022/06/23 09:48:24;;;;;;;0.57;0.57;;;;;;;25.65;47.37;100503.56;5191607;28;20036;-78
2022/06/23 09:51:09;;;;;;;0.30;0.30;;;;;;;25.72;47.22;100500.16;5151979;28;20595;-79
2022/06/23 09:53:49;;;;;;;0.40;0.40;;;;;;;25.80;46.39;100498.56;5173063;28;20049;-79
2022/06/23 09:56:35;;;;;;;0.40;0.40;;;;;;;25.83;46.58;100490.19;5181442;28;20141;-79
2022/06/23 09:59:35;;;;;;;0.30;0.30;;;;;;;25.91;46.24;100493.00;5162140;28;20124;-79
2022/06/23 10:02:15;;;;;;;0.30;0.30;;;;;;;25.97;46.12;100496.94;5163638;28;20052;-79
2022/06/23 10:05:14;;;;;;;0.52;0.52;;;;;;;26.05;45.84;100497.91;5190089;28;20037;-79
2022/06/23 10:08:08;;;;;;;0.32;0.32;;;;;;;26.07;46.31;100498.59;5203049;28;20041;-79
2022/06/23 10:11:13;;;;;;;0.50;0.50;;;;;;;26.15;46.44;100489.81;5182698;28;20045;-79
2022/06/23 10:14:05;;;;;;;0.55;0.55;;;;;;;26.30;47.16;100498.25;5192972;28;20112;-79
2022/06/23 10:17:19;;;;;;;16.33;2.10;;;;;;;26.29;47.67;100495.69;5188338;28;20080;-79
2022/06/23 10:19:55;;;;;;;4.10;1.67;;;;;;;26.34;47.43;100499.63;5180776;28;20482;-79
2022/06/23 10:22:57;;;;;;;1.20;0.68;;;;;;;26.42;47.71;100489.94;5179384;28;20082;-79
2022/06/23 10:25:46;;;;;;;0.35;0.35;;;;;;;26.59;48.06;100497.22;5181489;28;20053;-81
2022/06/23 10:28:35;;;;;;;0.30;0.30;;;;;;;26.60;47.55;100496.22;5189893;28;20040;-79
2022/06/23 10:31:17;;;;;;;0.75;0.60;;;;;;;26.65;47.92;100498.44;5192447;28;20230;-79
2022/06/23 10:34:09;;;;;;;0.57;0.57;;;;;;;26.72;47.66;100486.06;5182222;28;20534;-79
2022/06/23 10:37:08;;;;;;;0.28;0.28;;;;;;;26.85;47.74;100480.34;5199691;28;20515;-79
2022/06/23 10:40:08;;;;;;;0.50;0.50;;;;;;;26.90;46.96;100483.41;5197640;28;20398;-79
2022/06/23 10:43:00;;;;;;;4.15;1.35;;;;;;;26.94;47.50;100479.41;5166476;28;20390;-80
2022/06/23 10:45:53;;;;;;;2.30;1.65;;;;;;;26.98;47.32;100479.97;5197986;28;20405;-79
2022/06/23 10:48:53;;;;;;;3.33;1.75;;;;;;;27.09;47.59;100476.16;5208662;28;20188;-79
2022/06/23 10:52:04;;;;;;;0.40;0.40;;;;;;;27.13;46.34;100466.81;5159599;28;20065;-79
2022/06/23 10:55:12;;;;;;;1.35;0.95;;;;;;;27.18;46.37;100464.47;5213209;28;20029;-80
2022/06/23 10:58:02;;;;;;;1.08;0.90;;;;;;;27.23;46.74;100461.31;5148055;28;20511;-79
2022/06/23 11:01:11;;;;;;;1.98;1.55;;;;;;;27.37;46.73;100474.19;5150681;28;20045;-80
2022/06/23 11:04:18;;;;;;;0.73;0.73;;;;;;;27.42;46.51;100460.25;5190756;28;20090;-80
2022/06/23 11:07:24;;;;;;;0.82;0.50;;;;;;;27.45;46.06;100465.38;5186277;28;20033;-81
2022/06/23 11:10:31;;;;;;;0.93;0.30;;;;;;;27.56;46.13;100457.00;5167982;28;20072;-80
2022/06/23 11:13:02;;;;;;;1.50;1.08;;;;;;;27.54;45.99;100448.25;5165221;28;20033;-80
2022/06/23 11:15:42;;;;;;;2.90;0.75;;;;;;;27.57;46.93;100455.16;5162463;28;20052;-80
2022/06/23 11:18:18;;;;;;;2.33;1.05;;;;;;;27.61;46.86;100452.00;5160238;28;20041;-81
2022/06/23 11:20:54;;;;;;;2.40;1.52;;;;;;;27.75;46.40;100455.09;5196962;28;20041;-81
2022/06/23 11:23:44;;;;;;;0.73;0.63;;;;;;;27.82;45.97;100458.81;5159359;28;20045;-81
2022/06/23 11:26:40;;;;;;;3.78;1.45;;;;;;;27.92;45.11;100448.78;5184221;28;20037;-81
2022/06/23 11:29:56;;;;;;;0.60;0.47;;;;;;;27.93;45.45;100441.56;5151270;28;20064;-81
2022/06/23 11:33:11;;;;;;;0.65;0.57;;;;;;;28.02;45.41;100439.72;5207720;28;20042;-80
2022/06/23 11:36:22;;;;;;;0.68;0.68;;;;;;;28.14;45.65;100437.59;5160981;28;20045;-81
2022/06/23 11:39:47;;;;;;;0.40;0.40;;;;;;;28.21;45.05;100442.19;5177821;28;20034;-81
2022/06/23 11:42:21;;;;;;;0.73;0.73;;;;;;;28.32;44.98;100441.03;5100916;28;20076;-81
2022/06/23 11:45:20;;;;;;;0.30;0.30;;;;;;;28.39;44.39;100430.41;5150214;28;20526;-81
2022/06/23 11:48:39;;;;;;;1.75;0.52;;;;;;;28.46;44.53;100428.75;5157696;28;20033;-81
2022/06/23 11:51:19;;;;;;;0.25;0.25;;;;;;;28.58;44.42;100423.88;5150347;28;20565;-80
2022/06/23 11:54:19;;;;;;;0.50;0.50;;;;;;;28.67;43.86;100420.19;5172146;28;20618;-81
2022/06/23 11:57:01;;;;;;;1.27;1.17;;;;;;;28.71;44.39;100412.63;5145028;28;20053;-80
2022/06/23 11:59:45;;;;;;;0.65;0.50;;;;;;;28.76;44.20;100404.84;5171578;28;20044;-82
2022/06/23 12:02:16;;;;;;;0.40;0.40;;;;;;;28.88;44.04;100408.88;5187534;28;20048;-80
2022/06/23 12:05:13;;;;;;;0.40;0.40;;;;;;;28.99;43.62;100409.56;5184198;28;20687;-81
2022/06/23 12:08:10;;;;;;;0.20;0.20;;;;;;;29.02;43.43;100403.81;5158214;28;20037;-79
2022/06/23 12:10:40;;;;;;;0.30;0.30;;;;;;;29.18;43.03;100403.81;5175977;28;20603;-80
2022/06/23 12:13:11;;;;;;;0.30;0.30;;;;;;;29.26;42.51;100399.41;5176915;28;20104;-80
2022/06/23 12:15:48;;;;;;;0.95;0.85;;;;;;;29.30;42.94;100407.00;5174153;28;20042;-82
2022/06/23 12:18:42;;;;;;;0.32;0.32;;;;;;;29.37;42.48;100399.06;5189897;28;20033;-83
2022/06/23 12:21:42;;;;;;;1.13;1.08;;;;;;;29.43;42.80;100395.69;5178881;28;20017;-87
2022/06/23 12:24:22;;;;;;;0.68;0.68;;;;;;;29.49;41.55;100386.03;5187691;28;20090;-81
2022/06/23 12:27:20;;;;;;;0.57;0.57;;;;;;;29.63;42.54;100389.84;5199026;28;20036;-82
2022/06/23 12:30:02;;;;;;;1.05;1.05;;;;;;;29.74;42.47;100384.06;5151329;28;20048;-85
2022/06/23 12:32:59;;;;;;;0.20;0.20;;;;;;;29.82;40.62;100381.31;5193912;28;20132;-81
2022/06/23 12:35:48;;;;;;;0.40;0.40;;;;;;;29.89;41.58;100383.31;5195153;28;20063;-84
2022/06/23 12:38:25;;;;;;;1.05;0.47;;;;;;;30.00;40.26;100377.56;5181314;28;20335;-81
2022/06/23 12:41:02;;;;;;;0.32;0.32;;;;;;;30.07;41.05;100377.69;5161970;28;20048;-84
2022/06/23 12:44:11;;;;;;;0.57;0.57;;;;;;;30.14;40.83;100367.84;5174218;28;20091;-82
2022/06/23 12:47:01;;;;;;;0.30;0.30;;;;;;;30.21;40.59;100370.66;5124002;28;20066;-82
2022/06/23 12:49:51;;;;;;;0.63;0.52;;;;;;;30.36;40.17;100368.03;5153573;28;20034;-84
2022/06/23 12:52:27;;;;;;;0.45;0.43;;;;;;;30.42;39.21;100359.19;5172726;28;20400;-82
2022/06/23 12:55:30;;;;;;;0.38;0.38;;;;;;;30.41;39.99;100355.63;5190734;28;20103;-81
2022/06/23 12:58:01;;;;;;;;;;;;;;;30.46;39.73;100350.50;5174721;28;20141;-81